Time;durP1;ratioP1;P1;durP2;ratioP2;P2;SDS_P1;SDS_P2;PMS_P1;PMS_P2;Temp;Humidity;BMP_temperature;BMP_pressure;BME280_temperature;BME280_humidity;BME280_pressure;Samples;Min_cycle;Max_cycle;Signal;HPM_P1;HPM_P2
2023/08/04 00:01:16;;;;;;;1.98;0.60;;;;;;;;;;5120643;27;20469;-61
2023/08/04 00:03:41;;;;;;;1.73;0.50;;;;;;;;;;5117970;27;20035;-60
2023/08/04 00:06:07;;;;;;;1.43;0.40;;;;;;;;;;5119610;27;20505;-59
2023/08/04 00:08:32;;;;;;;1.58;0.50;;;;;;;;;;5120336;27;20032;-60
2023/08/04 00:10:57;;;;;;;1.13;0.40;;;;;;;;;;5110350;27;20051;-63
2023/08/04 00:13:22;;;;;;;2.90;0.50;;;;;;;;;;5113607;27;20399;-60
2023/08/04 00:15:47;;;;;;;1.70;0.50;;;;;;;;;;5121896;27;20027;-59
2023/08/04 00:18:13;;;;;;;1.50;0.50;;;;;;;;;;5127699;27;20031;-61
2023/08/04 00:20:38;;;;;;;2.10;0.50;;;;;;;;;;5123120;27;20059;-60
2023/08/04 00:23:03;;;;;;;1.30;0.50;;;;;;;;;;5111102;27;20440;-59
2023/08/04 00:25:28;;;;;;;2.97;0.90;;;;;;;;;;5115177;27;20023;-62
2023/08/04 00:27:53;;;;;;;3.57;0.60;;;;;;;;;;5120241;27;20054;-62
2023/08/04 00:30:18;;;;;;;2.08;0.55;;;;;;;;;;5123280;27;20028;-59
2023/08/04 00:32:44;;;;;;;2.60;0.40;;;;;;;;;;5111737;27;20085;-59
2023/08/04 00:35:09;;;;;;;1.70;0.50;;;;;;;;;;5118125;27;20468;-60
2023/08/04 00:37:34;;;;;;;2.43;0.60;;;;;;;;;;5120326;27;20034;-64
2023/08/04 00:40:00;;;;;;;2.53;0.70;;;;;;;;;;5118620;27;20507;-58
2023/08/04 00:42:25;;;;;;;1.73;0.50;;;;;;;;;;5113035;27;20019;-59
2023/08/04 00:44:50;;;;;;;1.60;0.40;;;;;;;;;;5119340;27;20030;-60
2023/08/04 00:47:15;;;;;;;1.77;0.70;;;;;;;;;;5114987;27;20494;-60
2023/08/04 00:49:40;;;;;;;2.07;0.60;;;;;;;;;;5118851;27;20189;-64
2023/08/04 00:52:06;;;;;;;2.07;0.50;;;;;;;;;;5118291;27;20114;-59
2023/08/04 00:54:31;;;;;;;2.25;0.60;;;;;;;;;;5114541;27;20074;-59
2023/08/04 00:56:57;;;;;;;3.93;0.60;;;;;;;;;;5113139;27;20020;-60
2023/08/04 00:59:22;;;;;;;1.65;0.50;;;;;;;;;;5113932;27;20394;-59
2023/08/04 01:01:48;;;;;;;3.80;0.70;;;;;;;;;;5114994;27;20039;-61
2023/08/04 01:04:13;;;;;;;1.90;0.60;;;;;;;;;;5119370;27;20036;-60
2023/08/04 01:06:55;;;;;;;2.30;0.70;;;;;;;;;;5119141;27;20015;-59
2023/08/04 01:09:43;;;;;;;1.38;0.50;;;;;;;;;;5114102;27;20035;-60
2023/08/04 01:12:12;;;;;;;2.15;0.60;;;;;;;;;;5113069;27;20027;-59
2023/08/04 01:14:38;;;;;;;1.88;0.50;;;;;;;;;;5117551;27;20478;-60
2023/08/04 01:17:20;;;;;;;2.78;0.50;;;;;;;;;;5115553;27;20475;-62
2023/08/04 01:19:46;;;;;;;1.50;0.60;;;;;;;;;;5116354;27;20012;-61
2023/08/04 01:22:11;;;;;;;2.97;0.60;;;;;;;;;;5117478;27;20023;-62
2023/08/04 01:24:36;;;;;;;1.42;0.50;;;;;;;;;;5120731;27;20023;-59
2023/08/04 01:27:01;;;;;;;2.83;0.77;;;;;;;;;;5122288;27;20085;-60
2023/08/04 01:29:27;;;;;;;1.50;0.60;;;;;;;;;;5111979;27;20016;-62
2023/08/04 01:31:52;;;;;;;1.95;0.52;;;;;;;;;;5111916;27;20110;-59
2023/08/04 01:34:17;;;;;;;2.60;0.70;;;;;;;;;;5113139;27;20047;-62
2023/08/04 01:36:42;;;;;;;2.13;0.40;;;;;;;;;;5116505;27;20464;-60
2023/08/04 01:39:08;;;;;;;1.35;0.57;;;;;;;;;;5117245;27;20024;-60
2023/08/04 01:41:33;;;;;;;2.50;0.70;;;;;;;;;;5116636;27;20494;-59
2023/08/04 01:43:58;;;;;;;2.33;0.60;;;;;;;;;;5114504;27;20012;-60
2023/08/04 01:46:23;;;;;;;2.30;0.60;;;;;;;;;;5123967;27;20030;-59
2023/08/04 01:48:48;;;;;;;2.45;0.80;;;;;;;;;;5117731;27;20538;-59
2023/08/04 01:51:13;;;;;;;2.00;0.70;;;;;;;;;;5120806;27;20027;-59
2023/08/04 01:53:38;;;;;;;2.53;0.70;;;;;;;;;;5122118;27;20016;-60
2023/08/04 01:56:04;;;;;;;2.42;0.70;;;;;;;;;;5112837;27;20023;-59
2023/08/04 01:58:29;;;;;;;1.70;0.60;;;;;;;;;;5112535;27;20630;-59
2023/08/04 02:00:54;;;;;;;1.70;0.60;;;;;;;;;;5117909;27;20084;-62
2023/08/04 02:03:19;;;;;;;3.23;0.63;;;;;;;;;;5109286;27;20032;-61
2023/08/04 02:05:48;;;;;;;1.35;0.50;;;;;;;;;;5113354;27;20023;-59
2023/08/04 02:08:13;;;;;;;2.40;0.60;;;;;;;;;;5115733;27;20024;-58
2023/08/04 02:10:45;;;;;;;1.97;0.70;;;;;;;;;;5115703;27;20060;-60
2023/08/04 02:13:10;;;;;;;;;;;;;;;;;;5119213;27;20020;-60
2023/08/04 02:15:35;;;;;;;1.95;0.70;;;;;;;;;;5112313;27;19922;-60
2023/08/04 02:18:00;;;;;;;1.13;0.40;;;;;;;;;;5114400;27;20024;-64
2023/08/04 02:20:26;;;;;;;2.63;0.70;;;;;;;;;;5115577;27;20031;-58
2023/08/04 02:22:51;;;;;;;1.87;0.63;;;;;;;;;;5115064;27;20015;-59
2023/08/04 02:25:16;;;;;;;1.67;0.47;;;;;;;;;;5114207;27;20023;-58
2023/08/04 02:27:41;;;;;;;2.15;0.65;;;;;;;;;;5113809;27;20023;-60
2023/08/04 02:30:06;;;;;;;1.43;0.60;;;;;;;;;;5115064;28;20066;-58
2023/08/04 02:32:32;;;;;;;2.17;0.63;;;;;;;;;;5116682;27;20027;-58
2023/08/04 02:34:57;;;;;;;1.10;0.52;;;;;;;;;;5118913;27;20038;-60
2023/08/04 02:37:22;;;;;;;2.88;0.80;;;;;;;;;;5118104;27;20099;-59
2023/08/04 02:39:47;;;;;;;2.07;0.70;;;;;;;;;;5117005;27;20023;-61
2023/08/04 02:42:12;;;;;;;2.50;0.67;;;;;;;;;;5114155;27;20483;-60
2023/08/04 02:44:37;;;;;;;1.92;0.63;;;;;;;;;;5114355;28;20040;-60
2023/08/04 02:47:03;;;;;;;1.65;0.60;;;;;;;;;;5118581;27;20077;-59
2023/08/04 02:49:28;;;;;;;1.80;0.53;;;;;;;;;;5110273;27;20632;-60
2023/08/04 02:51:53;;;;;;;4.60;0.80;;;;;;;;;;5120320;27;20031;-60
2023/08/04 02:54:18;;;;;;;3.05;0.70;;;;;;;;;;5120242;27;20092;-60
2023/08/04 02:56:43;;;;;;;2.27;0.80;;;;;;;;;;5116759;27;20502;-61
2023/08/04 02:59:08;;;;;;;2.37;0.67;;;;;;;;;;5117961;27;20023;-60
2023/08/04 03:01:33;;;;;;;2.28;0.68;;;;;;;;;;5117174;27;20466;-60
2023/08/04 03:03:59;;;;;;;3.17;0.70;;;;;;;;;;5111834;28;20092;-59
2023/08/04 03:06:24;;;;;;;2.03;0.70;;;;;;;;;;5112251;28;20011;-59
2023/08/04 03:08:49;;;;;;;2.57;0.63;;;;;;;;;;5119841;27;20391;-60
2023/08/04 03:11:14;;;;;;;2.37;0.80;;;;;;;;;;5112064;27;20019;-60
2023/08/04 03:13:39;;;;;;;1.93;0.60;;;;;;;;;;5117700;28;20046;-60
2023/08/04 03:16:05;;;;;;;3.73;0.80;;;;;;;;;;5117483;27;20119;-59
2023/08/04 03:18:30;;;;;;;3.10;0.70;;;;;;;;;;5126094;27;20028;-59
2023/08/04 03:20:55;;;;;;;1.70;0.60;;;;;;;;;;5120665;27;20070;-59
2023/08/04 03:23:21;;;;;;;2.10;0.70;;;;;;;;;;5117195;27;20474;-61
2023/08/04 03:25:47;;;;;;;1.63;0.70;;;;;;;;;;5116228;27;20036;-59
2023/08/04 03:28:12;;;;;;;2.95;0.77;;;;;;;;;;5113669;27;20972;-60
2023/08/04 03:30:37;;;;;;;3.43;1.03;;;;;;;;;;5121351;27;20034;-59
2023/08/04 03:33:02;;;;;;;3.80;0.90;;;;;;;;;;5119085;27;20023;-59
2023/08/04 03:35:28;;;;;;;1.87;0.60;;;;;;;;;;5119412;27;20015;-60
2023/08/04 03:37:53;;;;;;;1.40;0.70;;;;;;;;;;5120145;27;20015;-62
2023/08/04 03:40:18;;;;;;;2.60;0.75;;;;;;;;;;5121734;27;20062;-61
2023/08/04 03:42:43;;;;;;;3.00;0.73;;;;;;;;;;5118954;27;20026;-60
2023/08/04 03:45:09;;;;;;;2.60;0.80;;;;;;;;;;5120756;27;20027;-61
2023/08/04 03:47:37;;;;;;;1.73;0.63;;;;;;;;;;5118009;27;20027;-60
2023/08/04 03:50:03;;;;;;;2.40;0.90;;;;;;;;;;5115965;27;21076;-61
2023/08/04 03:52:28;;;;;;;2.45;0.70;;;;;;;;;;5122654;27;20040;-59
2023/08/04 03:54:53;;;;;;;2.40;0.70;;;;;;;;;;5118927;27;20019;-58
2023/08/04 03:57:18;;;;;;;2.05;0.68;;;;;;;;;;5113972;27;20012;-59
2023/08/04 03:59:44;;;;;;;2.93;0.80;;;;;;;;;;5126451;27;20032;-58
2023/08/04 04:02:09;;;;;;;3.00;0.98;;;;;;;;;;5117716;27;20031;-59
2023/08/04 04:04:34;;;;;;;3.17;1.00;;;;;;;;;;5124638;27;20031;-58
2023/08/04 04:06:59;;;;;;;2.43;0.80;;;;;;;;;;5126568;27;20642;-59
2023/08/04 04:09:24;;;;;;;3.72;1.00;;;;;;;;;;5124268;27;20023;-61
2023/08/04 04:11:49;;;;;;;6.20;1.00;;;;;;;;;;5118753;27;20395;-60
2023/08/04 04:14:15;;;;;;;2.80;0.80;;;;;;;;;;5117939;27;20126;-58
2023/08/04 04:16:40;;;;;;;2.50;0.90;;;;;;;;;;5115437;27;20027;-58
2023/08/04 04:19:05;;;;;;;3.00;0.90;;;;;;;;;;5113291;27;20066;-60
2023/08/04 04:21:30;;;;;;;2.87;0.90;;;;;;;;;;5124109;27;20111;-60
2023/08/04 04:23:55;;;;;;;2.13;0.67;;;;;;;;;;5123975;27;20027;-60
2023/08/04 04:26:21;;;;;;;4.93;0.90;;;;;;;;;;5115873;27;20050;-61
2023/08/04 04:28:46;;;;;;;2.50;0.80;;;;;;;;;;5123537;27;20499;-59
2023/08/04 04:31:11;;;;;;;3.75;0.80;;;;;;;;;;5116868;27;20414;-60
2023/08/04 04:33:36;;;;;;;3.40;1.03;;;;;;;;;;5124433;27;20027;-60
2023/08/04 04:36:01;;;;;;;2.77;0.70;;;;;;;;;;5118186;27;20153;-61
2023/08/04 04:38:28;;;;;;;3.40;0.93;;;;;;;;;;5115436;27;20039;-61
2023/08/04 04:41:02;;;;;;;2.78;0.90;;;;;;;;;;5122834;27;20118;-61
2023/08/04 04:43:28;;;;;;;2.72;0.90;;;;;;;;;;5123019;27;20484;-60
2023/08/04 04:45:53;;;;;;;2.10;0.70;;;;;;;;;;5120804;27;20102;-60
2023/08/04 04:48:19;;;;;;;1.95;0.77;;;;;;;;;;5112886;27;20023;-60
2023/08/04 04:50:44;;;;;;;3.53;0.90;;;;;;;;;;5121401;27;20034;-60
2023/08/04 04:53:09;;;;;;;2.50;0.80;;;;;;;;;;5115832;27;20068;-61
2023/08/04 04:55:35;;;;;;;3.30;0.97;;;;;;;;;;5116607;27;20017;-59
2023/08/04 04:58:00;;;;;;;1.33;0.70;;;;;;;;;;5116080;27;20038;-58
2023/08/04 05:00:26;;;;;;;2.25;0.55;;;;;;;;;;5112336;27;20386;-60
2023/08/04 05:02:51;;;;;;;2.17;0.60;;;;;;;;;;5114007;27;20024;-58
2023/08/04 05:05:16;;;;;;;3.35;0.75;;;;;;;;;;5115538;27;20484;-59
2023/08/04 05:07:41;;;;;;;2.50;0.90;;;;;;;;;;5115367;27;20024;-59
2023/08/04 05:10:08;;;;;;;1.90;0.70;;;;;;;;;;5113514;27;20020;-59
2023/08/04 05:12:33;;;;;;;1.05;0.50;;;;;;;;;;5118680;27;20026;-63
2023/08/04 05:14:58;;;;;;;5.22;0.70;;;;;;;;;;5117124;27;20027;-59
2023/08/04 05:17:23;;;;;;;3.27;0.70;;;;;;;;;;5118105;27;20058;-63
2023/08/04 05:19:48;;;;;;;2.90;0.63;;;;;;;;;;5118661;27;20482;-59
2023/08/04 05:22:14;;;;;;;1.97;0.60;;;;;;;;;;5114193;27;20035;-59
2023/08/04 05:24:39;;;;;;;2.60;0.70;;;;;;;;;;5127697;27;20027;-58
2023/08/04 05:27:04;;;;;;;2.63;0.80;;;;;;;;;;5117006;27;20485;-60
2023/08/04 05:29:29;;;;;;;2.78;0.90;;;;;;;;;;5122491;27;20053;-58
2023/08/04 05:31:55;;;;;;;3.37;0.90;;;;;;;;;;5108772;27;20011;-62
2023/08/04 05:34:20;;;;;;;1.60;0.60;;;;;;;;;;5110909;27;20891;-59
2023/08/04 05:36:45;;;;;;;1.88;0.70;;;;;;;;;;5108622;27;20028;-59
2023/08/04 05:39:10;;;;;;;2.95;0.95;;;;;;;;;;5109007;27;20786;-60
2023/08/04 05:41:35;;;;;;;2.50;0.80;;;;;;;;;;5108792;27;20031;-59
2023/08/04 05:44:00;;;;;;;4.10;1.10;;;;;;;;;;5126207;27;20018;-60
2023/08/04 05:46:26;;;;;;;2.15;0.70;;;;;;;;;;5115720;27;20023;-62
2023/08/04 05:48:51;;;;;;;2.97;0.80;;;;;;;;;;5109596;27;20116;-59
2023/08/04 05:51:16;;;;;;;2.67;0.80;;;;;;;;;;5116723;27;20621;-60
2023/08/04 05:53:42;;;;;;;4.33;0.90;;;;;;;;;;5122544;27;20038;-59
2023/08/04 05:56:07;;;;;;;;;;;;;;;;;;5120799;27;20526;-60
2023/08/04 05:58:33;;;;;;;2.63;0.70;;;;;;;;;;5118092;27;20350;-60
2023/08/04 06:00:58;;;;;;;2.90;0.93;;;;;;;;;;5122713;27;20122;-59
2023/08/04 06:03:23;;;;;;;2.63;0.80;;;;;;;;;;5122907;27;20440;-59
2023/08/04 06:05:48;;;;;;;2.67;0.90;;;;;;;;;;5118894;27;20038;-60
2023/08/04 06:08:13;;;;;;;2.73;0.87;;;;;;;;;;5116166;27;20425;-59
2023/08/04 06:10:38;;;;;;;2.47;0.70;;;;;;;;;;5118903;27;20547;-59
2023/08/04 06:13:04;;;;;;;2.80;0.97;;;;;;;;;;5120332;27;20027;-59
2023/08/04 06:15:30;;;;;;;2.25;0.80;;;;;;;;;;5134487;27;20023;-59
2023/08/04 06:17:55;;;;;;;3.30;0.93;;;;;;;;;;5118008;27;20132;-59
2023/08/04 06:20:20;;;;;;;2.70;0.90;;;;;;;;;;5121500;27;20079;-59
2023/08/04 06:22:48;;;;;;;3.73;0.90;;;;;;;;;;5123014;27;20503;-60
2023/08/04 06:25:14;;;;;;;4.30;0.90;;;;;;;;;;5115530;27;20479;-60
2023/08/04 06:27:39;;;;;;;2.50;0.90;;;;;;;;;;5114511;27;20045;-61
2023/08/04 06:30:05;;;;;;;3.17;0.80;;;;;;;;;;5119744;27;20023;-61
2023/08/04 06:32:30;;;;;;;2.60;1.05;;;;;;;;;;5120327;27;20065;-59
2023/08/04 06:34:55;;;;;;;3.07;1.00;;;;;;;;;;5118334;27;20023;-60
2023/08/04 06:37:20;;;;;;;3.47;0.98;;;;;;;;;;5120001;28;20023;-59
2023/08/04 06:39:46;;;;;;;3.80;0.80;;;;;;;;;;5125773;27;20627;-59
2023/08/04 06:42:11;;;;;;;2.90;1.00;;;;;;;;;;5120571;27;20061;-58
2023/08/04 06:44:36;;;;;;;2.37;0.80;;;;;;;;;;5122922;27;20087;-58
2023/08/04 06:47:01;;;;;;;3.53;0.80;;;;;;;;;;5116680;27;20027;-59
2023/08/04 06:49:27;;;;;;;1.95;0.88;;;;;;;;;;5119368;27;20023;-59
2023/08/04 06:51:52;;;;;;;1.97;0.70;;;;;;;;;;5120219;28;20517;-60
2023/08/04 06:54:18;;;;;;;1.97;0.87;;;;;;;;;;5129410;27;20054;-60
2023/08/04 06:56:43;;;;;;;2.63;1.00;;;;;;;;;;5126052;27;20066;-58
2023/08/04 06:59:08;;;;;;;3.28;0.93;;;;;;;;;;5126246;27;20070;-59
2023/08/04 07:01:33;;;;;;;4.30;1.00;;;;;;;;;;5123896;27;20027;-58
2023/08/04 07:03:58;;;;;;;4.00;0.93;;;;;;;;;;5120634;27;20037;-59
2023/08/04 07:06:23;;;;;;;3.23;0.90;;;;;;;;;;5119289;27;20032;-62
2023/08/04 07:08:49;;;;;;;2.23;0.90;;;;;;;;;;5125682;27;20023;-59
2023/08/04 07:11:15;;;;;;;2.22;0.80;;;;;;;;;;5128024;27;20022;-60
2023/08/04 07:13:40;;;;;;;3.45;0.90;;;;;;;;;;5117348;27;20031;-59
2023/08/04 07:16:05;;;;;;;2.33;0.83;;;;;;;;;;5127753;27;20030;-59
2023/08/04 07:18:31;;;;;;;3.17;1.00;;;;;;;;;;5128488;27;20031;-58
2023/08/04 07:21:09;;;;;;;3.60;1.00;;;;;;;;;;5121735;27;20749;-61
2023/08/04 07:23:34;;;;;;;2.95;1.00;;;;;;;;;;5112802;27;20452;-59
2023/08/04 07:25:59;;;;;;;2.57;1.07;;;;;;;;;;5132453;27;20071;-59
2023/08/04 07:28:25;;;;;;;2.37;0.90;;;;;;;;;;5133781;27;20493;-61
2023/08/04 07:30:50;;;;;;;2.37;0.97;;;;;;;;;;5137213;27;20076;-59
2023/08/04 07:33:15;;;;;;;2.40;0.90;;;;;;;;;;5121924;27;20143;-59
2023/08/04 07:35:40;;;;;;;3.83;1.27;;;;;;;;;;5132415;27;20026;-59
2023/08/04 07:38:05;;;;;;;3.35;1.08;;;;;;;;;;5124164;27;20135;-61
2023/08/04 07:40:30;;;;;;;2.70;1.10;;;;;;;;;;5127844;27;20038;-60
2023/08/04 07:42:55;;;;;;;3.30;1.10;;;;;;;;;;5129800;27;20414;-59
2023/08/04 07:45:21;;;;;;;3.23;1.00;;;;;;;;;;5129570;27;20019;-61
2023/08/04 07:47:46;;;;;;;3.33;1.30;;;;;;;;;;5128155;27;20558;-58
2023/08/04 07:50:11;;;;;;;2.53;0.95;;;;;;;;;;5126528;27;20031;-61
2023/08/04 07:52:36;;;;;;;2.67;1.00;;;;;;;;;;5126620;27;20021;-61
2023/08/04 07:55:01;;;;;;;2.40;0.90;;;;;;;;;;5129033;27;20990;-60
2023/08/04 07:57:26;;;;;;;3.33;1.00;;;;;;;;;;5125350;27;20015;-60
2023/08/04 07:59:52;;;;;;;5.97;1.10;;;;;;;;;;5128661;27;20027;-61
2023/08/04 08:02:17;;;;;;;3.70;0.90;;;;;;;;;;5133908;27;20055;-61
2023/08/04 08:04:42;;;;;;;3.00;1.00;;;;;;;;;;5132599;27;20102;-61
2023/08/04 08:07:08;;;;;;;2.40;0.90;;;;;;;;;;5134280;27;20019;-61
2023/08/04 08:09:33;;;;;;;2.70;0.90;;;;;;;;;;5132275;27;20024;-62
2023/08/04 08:11:59;;;;;;;2.13;0.90;;;;;;;;;;5134213;27;20031;-61
2023/08/04 08:14:24;;;;;;;3.22;1.33;;;;;;;;;;5133529;27;20097;-61
2023/08/04 08:16:49;;;;;;;2.80;1.10;;;;;;;;;;5124824;27;20059;-61
2023/08/04 08:19:14;;;;;;;3.07;1.10;;;;;;;;;;5133476;27;20094;-60
2023/08/04 08:21:43;;;;;;;2.00;0.97;;;;;;;;;;5133448;27;20026;-62
2023/08/04 08:24:08;;;;;;;3.67;1.20;;;;;;;;;;5132044;27;20023;-58
2023/08/04 08:26:33;;;;;;;2.92;1.02;;;;;;;;;;5131856;27;20019;-61
2023/08/04 08:28:59;;;;;;;3.40;1.00;;;;;;;;;;5142010;27;20033;-58
2023/08/04 08:31:24;;;;;;;4.83;1.27;;;;;;;;;;5133384;27;20015;-60
2023/08/04 08:33:49;;;;;;;3.27;1.30;;;;;;;;;;5134073;27;20051;-60
2023/08/04 08:36:14;;;;;;;2.95;1.10;;;;;;;;;;5122845;27;20019;-59
2023/08/04 08:38:39;;;;;;;3.22;1.30;;;;;;;;;;5132091;27;20043;-60
2023/08/04 08:41:05;;;;;;;2.75;1.08;;;;;;;;;;5133197;27;20035;-60
2023/08/04 08:43:30;;;;;;;3.27;1.27;;;;;;;;;;5132912;27;20031;-62
2023/08/04 08:45:56;;;;;;;4.73;1.20;;;;;;;;;;5133234;27;20019;-60
2023/08/04 08:48:22;;;;;;;3.42;1.30;;;;;;;;;;5133476;27;20049;-61
2023/08/04 08:50:50;;;;;;;3.67;1.25;;;;;;;;;;5130639;27;20451;-58
2023/08/04 08:53:20;;;;;;;3.90;1.30;;;;;;;;;;5128204;27;20012;-60
2023/08/04 08:55:45;;;;;;;3.92;1.40;;;;;;;;;;5126500;27;20076;-59
2023/08/04 08:58:11;;;;;;;2.53;1.00;;;;;;;;;;5132667;27;20015;-61
2023/08/04 09:00:36;;;;;;;3.97;1.40;;;;;;;;;;5132977;27;20073;-62
2023/08/04 09:03:05;;;;;;;3.88;1.33;;;;;;;;;;5122502;27;20371;-59
2023/08/04 09:05:31;;;;;;;4.25;1.30;;;;;;;;;;5133146;27;20015;-61
2023/08/04 09:07:56;;;;;;;2.85;1.10;;;;;;;;;;5132692;27;20382;-59
2023/08/04 09:10:21;;;;;;;3.53;1.20;;;;;;;;;;5125371;27;20023;-60
2023/08/04 09:12:48;;;;;;;3.37;1.50;;;;;;;;;;5132593;27;20043;-59
2023/08/04 09:15:13;;;;;;;3.83;1.55;;;;;;;;;;5132651;27;20367;-60
2023/08/04 09:17:39;;;;;;;2.63;1.00;;;;;;;;;;5131151;27;20087;-60
2023/08/04 09:20:06;;;;;;;3.88;1.30;;;;;;;;;;5129190;27;20063;-60
2023/08/04 09:22:35;;;;;;;2.95;1.40;;;;;;;;;;5127519;27;20073;-60
2023/08/04 09:25:03;;;;;;;2.58;1.00;;;;;;;;;;5136733;27;20023;-60
2023/08/04 09:27:30;;;;;;;4.25;1.40;;;;;;;;;;5132889;27;20043;-60
2023/08/04 09:29:56;;;;;;;6.07;1.30;;;;;;;;;;5133192;27;20030;-59
2023/08/04 09:32:21;;;;;;;2.88;0.93;;;;;;;;;;5132232;27;20019;-60
2023/08/04 09:34:46;;;;;;;3.20;1.30;;;;;;;;;;5129896;27;20012;-60
2023/08/04 09:37:15;;;;;;;3.90;1.20;;;;;;;;;;5126539;27;20007;-60
2023/08/04 09:39:46;;;;;;;2.88;1.10;;;;;;;;;;5139489;27;20030;-59
2023/08/04 09:42:11;;;;;;;3.58;1.40;;;;;;;;;;5132441;27;20023;-61
2023/08/04 09:44:36;;;;;;;3.28;1.10;;;;;;;;;;5132095;27;20033;-59
2023/08/04 09:47:04;;;;;;;4.23;1.60;;;;;;;;;;5132317;27;20068;-62
2023/08/04 09:49:30;;;;;;;3.42;1.10;;;;;;;;;;5130670;27;20480;-62
2023/08/04 09:51:56;;;;;;;3.22;1.20;;;;;;;;;;5133354;27;20027;-61
2023/08/04 09:54:21;;;;;;;3.95;1.63;;;;;;;;;;5118709;27;20027;-61
2023/08/04 09:56:47;;;;;;;3.20;1.07;;;;;;;;;;5130729;27;20027;-58
2023/08/04 09:59:12;;;;;;;3.88;1.40;;;;;;;;;;5131951;27;20466;-59
2023/08/04 10:01:39;;;;;;;4.72;1.70;;;;;;;;;;5131888;27;20092;-60
2023/08/04 10:04:06;;;;;;;3.20;1.20;;;;;;;;;;5131143;27;20662;-59
2023/08/04 10:06:33;;;;;;;;;;;;;;;;;;5117666;27;20019;-59
2023/08/04 10:08:58;;;;;;;3.17;1.20;;;;;;;;;;5129309;27;19967;-61
2023/08/04 10:11:23;;;;;;;3.70;1.60;;;;;;;;;;5122159;27;20521;-61
2023/08/04 10:13:50;;;;;;;3.47;1.30;;;;;;;;;;5131067;27;20558;-58
2023/08/04 10:16:17;;;;;;;3.30;1.45;;;;;;;;;;5131361;27;20433;-60
2023/08/04 10:18:53;;;;;;;2.90;1.30;;;;;;;;;;5125927;27;20024;-61
2023/08/04 10:21:20;;;;;;;4.22;1.33;;;;;;;;;;5128785;27;20032;-61
2023/08/04 10:23:45;;;;;;;3.53;1.10;;;;;;;;;;5129610;28;20125;-62
2023/08/04 10:26:12;;;;;;;4.30;1.30;;;;;;;;;;5129960;27;20020;-59
2023/08/04 10:28:56;;;;;;;3.78;1.35;;;;;;;;;;5128331;27;20022;-60
2023/08/04 10:31:21;;;;;;;4.07;1.30;;;;;;;;;;5133581;27;20497;-61
2023/08/04 10:34:06;;;;;;;4.17;1.30;;;;;;;;;;5139702;27;20039;-59
2023/08/04 10:36:51;;;;;;;5.28;1.70;;;;;;;;;;5137642;27;20023;-60
2023/08/04 10:39:30;;;;;;;10.18;2.85;;;;;;;;;;5133657;27;20019;-62
2023/08/04 10:41:55;;;;;;;4.68;1.83;;;;;;;;;;5129394;27;20035;-59
2023/08/04 10:44:23;;;;;;;5.90;2.10;;;;;;;;;;5128998;27;20090;-61
2023/08/04 10:46:48;;;;;;;8.32;1.85;;;;;;;;;;5132374;27;20494;-61
2023/08/04 10:49:13;;;;;;;4.35;1.80;;;;;;;;;;5135483;27;20054;-60
2023/08/04 10:51:39;;;;;;;4.47;1.80;;;;;;;;;;5129973;27;20524;-61
2023/08/04 10:54:04;;;;;;;5.13;2.10;;;;;;;;;;5136221;27;20050;-62
2023/08/04 10:56:29;;;;;;;4.43;2.10;;;;;;;;;;5134038;27;20478;-60
2023/08/04 10:58:55;;;;;;;4.90;2.30;;;;;;;;;;5131658;27;20459;-62
2023/08/04 11:01:21;;;;;;;3.53;1.83;;;;;;;;;;5125993;27;20063;-63
2023/08/04 11:03:47;;;;;;;4.38;2.20;;;;;;;;;;5127318;27;20062;-63
2023/08/04 11:06:12;;;;;;;;;;;;;;;;;;5124184;27;20486;-64
2023/08/04 11:08:37;;;;;;;5.00;1.88;;;;;;;;;;5128552;27;20363;-64
2023/08/04 11:11:02;;;;;;;4.10;1.80;;;;;;;;;;5122390;27;20030;-64
2023/08/04 11:13:27;;;;;;;4.17;1.90;;;;;;;;;;5118712;27;20028;-62
2023/08/04 11:15:54;;;;;;;4.13;1.55;;;;;;;;;;5126590;27;20050;-63
2023/08/04 11:18:27;;;;;;;5.07;1.47;;;;;;;;;;5125158;27;20015;-63
2023/08/04 11:20:53;;;;;;;3.55;1.30;;;;;;;;;;5128253;27;20031;-62
2023/08/04 11:23:27;;;;;;;3.08;1.30;;;;;;;;;;5121650;27;20387;-61
2023/08/04 11:25:53;;;;;;;3.30;1.33;;;;;;;;;;5124377;27;20107;-64
2023/08/04 11:28:19;;;;;;;3.30;1.33;;;;;;;;;;5129405;27;20120;-64
2023/08/04 11:30:44;;;;;;;3.20;1.52;;;;;;;;;;5120394;27;20497;-66
2023/08/04 11:33:10;;;;;;;3.58;1.55;;;;;;;;;;5123875;27;20041;-63
2023/08/04 11:35:35;;;;;;;5.03;1.47;;;;;;;;;;5129424;27;20773;-63
2023/08/04 11:38:00;;;;;;;2.63;1.13;;;;;;;;;;5117891;27;20114;-61
2023/08/04 11:40:26;;;;;;;2.20;0.90;;;;;;;;;;5118801;27;20023;-62
2023/08/04 11:42:51;;;;;;;2.30;1.00;;;;;;;;;;5119830;27;20088;-66
2023/08/04 11:45:17;;;;;;;3.10;1.20;;;;;;;;;;5114827;27;20026;-63
2023/08/04 11:47:42;;;;;;;2.72;0.93;;;;;;;;;;5129166;27;20088;-62
2023/08/04 11:50:08;;;;;;;2.50;1.10;;;;;;;;;;5128363;27;20080;-63
2023/08/04 11:52:37;;;;;;;3.00;1.00;;;;;;;;;;5124630;27;20019;-63
2023/08/04 11:55:03;;;;;;;3.75;1.30;;;;;;;;;;5123531;27;20120;-61
2023/08/04 11:57:28;;;;;;;3.25;1.10;;;;;;;;;;5121428;27;20394;-63
2023/08/04 11:59:54;;;;;;;2.00;0.90;;;;;;;;;;5130435;27;20042;-61
2023/08/04 12:02:19;;;;;;;3.07;1.20;;;;;;;;;;5121280;27;20043;-62
2023/08/04 12:04:44;;;;;;;1.70;0.70;;;;;;;;;;5119358;27;20110;-65
2023/08/04 12:07:10;;;;;;;1.73;0.80;;;;;;;;;;5115858;27;20035;-64
2023/08/04 12:09:35;;;;;;;5.60;1.10;;;;;;;;;;5124834;27;20023;-62
2023/08/04 12:12:02;;;;;;;3.10;1.10;;;;;;;;;;5119520;27;20107;-60
2023/08/04 12:14:27;;;;;;;2.88;1.00;;;;;;;;;;5123959;27;20030;-62
2023/08/04 12:16:53;;;;;;;2.97;1.13;;;;;;;;;;5126276;27;20019;-63
2023/08/04 12:19:18;;;;;;;;;;;;;;;;;;5119545;27;20012;-64
2023/08/04 12:21:44;;;;;;;2.60;1.00;;;;;;;;;;5122516;27;20022;-63
2023/08/04 12:24:09;;;;;;;2.30;0.90;;;;;;;;;;5123903;27;20050;-62
2023/08/04 12:26:34;;;;;;;2.37;1.00;;;;;;;;;;5123419;27;20554;-63
2023/08/04 12:28:59;;;;;;;3.40;0.90;;;;;;;;;;5123235;27;20125;-63
2023/08/04 12:31:24;;;;;;;3.20;1.20;;;;;;;;;;5129408;27;20016;-61
2023/08/04 12:33:49;;;;;;;3.17;1.30;;;;;;;;;;5121685;27;20022;-61
2023/08/04 12:36:14;;;;;;;4.57;1.47;;;;;;;;;;5127063;27;20027;-63
2023/08/04 12:38:40;;;;;;;4.37;1.40;;;;;;;;;;5130503;27;20036;-62
2023/08/04 12:41:05;;;;;;;2.90;1.30;;;;;;;;;;5118896;27;20031;-64
2023/08/04 12:43:30;;;;;;;3.15;1.20;;;;;;;;;;5113158;27;20020;-64
2023/08/04 12:45:55;;;;;;;3.70;1.30;;;;;;;;;;5123955;27;20048;-62
2023/08/04 12:48:20;;;;;;;4.82;1.70;;;;;;;;;;5113464;27;20026;-62
2023/08/04 12:50:46;;;;;;;4.03;1.70;;;;;;;;;;5120958;27;20487;-60
2023/08/04 12:53:13;;;;;;;4.07;1.60;;;;;;;;;;5112930;27;20015;-61
2023/08/04 12:55:39;;;;;;;4.85;1.77;;;;;;;;;;5116181;27;20144;-62
2023/08/04 12:58:04;;;;;;;3.87;1.57;;;;;;;;;;5115485;27;20540;-61
2023/08/04 13:00:29;;;;;;;3.28;1.58;;;;;;;;;;5124568;27;20038;-62
2023/08/04 13:02:54;;;;;;;4.95;1.80;;;;;;;;;;5129173;27;20106;-60
2023/08/04 13:05:19;;;;;;;3.85;1.75;;;;;;;;;;5129027;27;20023;-62
2023/08/04 13:07:45;;;;;;;3.30;1.60;;;;;;;;;;5136143;27;20019;-62
2023/08/04 13:10:10;;;;;;;4.15;1.80;;;;;;;;;;5120991;27;20027;-62
2023/08/04 13:12:36;;;;;;;4.13;1.60;;;;;;;;;;5132311;27;20027;-63
2023/08/04 13:15:02;;;;;;;5.32;1.83;;;;;;;;;;5125906;27;20015;-62
2023/08/04 13:17:27;;;;;;;3.45;1.48;;;;;;;;;;5144817;27;20486;-61
2023/08/04 13:19:53;;;;;;;3.70;1.50;;;;;;;;;;5152716;27;20090;-61
2023/08/04 13:22:18;;;;;;;4.18;1.45;;;;;;;;;;5137750;27;20143;-64
2023/08/04 13:24:43;;;;;;;3.97;1.50;;;;;;;;;;5129930;27;20031;-64
2023/08/04 13:27:08;;;;;;;5.30;1.60;;;;;;;;;;5127014;27;20058;-63
2023/08/04 13:29:34;;;;;;;3.40;1.57;;;;;;;;;;5131795;27;20016;-63
2023/08/04 13:31:59;;;;;;;3.92;1.70;;;;;;;;;;5132720;27;20148;-63
2023/08/04 13:34:24;;;;;;;4.40;1.60;;;;;;;;;;5131766;27;20482;-61
2023/08/04 13:36:49;;;;;;;4.65;1.60;;;;;;;;;;5139249;27;20019;-63
2023/08/04 13:39:14;;;;;;;4.13;1.50;;;;;;;;;;5126812;27;20503;-61
2023/08/04 13:41:39;;;;;;;3.38;1.60;;;;;;;;;;5129940;27;20019;-63
2023/08/04 13:44:05;;;;;;;3.13;1.40;;;;;;;;;;5132067;27;20402;-61
2023/08/04 13:46:30;;;;;;;4.10;1.60;;;;;;;;;;5132580;27;20538;-63
2023/08/04 13:48:55;;;;;;;3.23;1.37;;;;;;;;;;5129989;27;20030;-61
2023/08/04 13:51:20;;;;;;;3.97;1.50;;;;;;;;;;5143700;27;20023;-62
2023/08/04 13:53:45;;;;;;;3.35;1.50;;;;;;;;;;5126694;27;20393;-61
2023/08/04 13:56:10;;;;;;;3.87;1.70;;;;;;;;;;5130897;27;20025;-61
2023/08/04 13:58:35;;;;;;;3.97;1.80;;;;;;;;;;5132061;27;20011;-63
2023/08/04 14:01:03;;;;;;;4.43;2.00;;;;;;;;;;5131529;27;20106;-63
2023/08/04 14:03:28;;;;;;;3.60;1.90;;;;;;;;;;5127826;27;20030;-66
2023/08/04 14:05:57;;;;;;;3.90;1.70;;;;;;;;;;5117447;27;20016;-61
2023/08/04 14:08:22;;;;;;;4.47;1.90;;;;;;;;;;5126917;27;20011;-64
2023/08/04 14:10:47;;;;;;;4.07;2.00;;;;;;;;;;5130542;27;20038;-61
2023/08/04 14:13:13;;;;;;;3.40;1.80;;;;;;;;;;5131218;27;20046;-62
2023/08/04 14:15:38;;;;;;;4.00;1.90;;;;;;;;;;5130739;27;20023;-62
2023/08/04 14:18:03;;;;;;;3.85;1.77;;;;;;;;;;5131443;27;20046;-65
2023/08/04 14:20:28;;;;;;;3.50;1.60;;;;;;;;;;5132421;27;20032;-63
2023/08/04 14:22:54;;;;;;;3.83;1.80;;;;;;;;;;5138643;27;20046;-63
2023/08/04 14:25:19;;;;;;;3.88;1.75;;;;;;;;;;5133243;27;20471;-63
2023/08/04 14:27:44;;;;;;;4.50;1.90;;;;;;;;;;5129779;27;20382;-63
2023/08/04 14:30:10;;;;;;;3.97;1.70;;;;;;;;;;5131530;27;20076;-64
2023/08/04 14:32:37;;;;;;;4.00;1.95;;;;;;;;;;5131888;27;20023;-61
2023/08/04 14:35:03;;;;;;;4.32;1.55;;;;;;;;;;5123217;27;20047;-64
2023/08/04 14:37:28;;;;;;;3.20;1.50;;;;;;;;;;5139420;27;20039;-65